createdAt,value
2022-08-05T00:00:10.916Z,13.93
2022-08-05T00:06:01.839Z,13.22
2022-08-05T00:08:00.825Z,14.33
2022-08-05T00:10:27.259Z,14.25
2022-08-05T00:12:59.212Z,14.30
2022-08-05T00:15:55.249Z,13.75
2022-08-05T00:18:05.699Z,14.40
2022-08-05T00:20:39.078Z,13.45
2022-08-05T00:23:13.295Z,14.40
2022-08-05T00:25:46.393Z,14.55
2022-08-05T00:28:21.116Z,14.40
2022-08-05T00:30:53.702Z,13.72
2022-08-05T00:34:55.425Z,14.33
2022-08-05T00:36:16.517Z,14.63
2022-08-05T00:38:34.362Z,14.50
2022-08-05T00:41:11.666Z,15.85
2022-08-05T00:43:49.588Z,14.70
2022-08-05T00:46:16.336Z,14.63
2022-08-05T00:48:51.405Z,14.40
2022-08-05T00:51:51.515Z,15.80
2022-08-05T00:54:02.489Z,14.47
2022-08-05T00:56:32.206Z,14.87
2022-08-05T00:59:06.881Z,14.90
2022-08-05T01:04:14.092Z,14.58
2022-08-05T01:06:48.493Z,13.98
2022-08-05T01:09:19.966Z,13.83
2022-08-05T01:11:55.510Z,14.83
2022-08-05T01:14:40.053Z,15.50
2022-08-05T01:17:25.711Z,14.45
2022-08-05T01:20:07.110Z,14.05
2022-08-05T01:22:54.183Z,14.93
2022-08-05T01:25:52.390Z,13.90
2022-08-05T01:28:37.428Z,15.65
2022-08-05T01:31:17.167Z,14.38
2022-08-05T01:34:04.582Z,14.35
2022-08-05T01:36:42.294Z,16.62
2022-08-05T01:39:15.941Z,13.90
2022-08-05T01:41:52.656Z,14.47
2022-08-05T01:44:34.513Z,15.20
2022-08-05T01:47:05.210Z,14.98
2022-08-05T01:50:01.907Z,15.08
2022-08-05T01:52:17.437Z,15.93
2022-08-05T01:54:52.757Z,15.40
2022-08-05T01:58:10.630Z,16.25
2022-08-05T02:00:11.923Z,15.48
2022-08-05T02:02:55.128Z,14.63
2022-08-05T02:05:30.729Z,14.45
2022-08-05T02:08:05.290Z,14.30
2022-08-05T02:10:58.695Z,14.28
2022-08-05T02:13:53.111Z,14.87
2022-08-05T02:16:32.379Z,14.53
2022-08-05T02:19:11.032Z,15.93
2022-08-05T02:21:46.637Z,14.63
2022-08-05T02:24:23.198Z,14.80
2022-08-05T02:27:09.990Z,15.03
2022-08-05T02:29:58.937Z,15.05
2022-08-05T02:32:12.904Z,14.68
2022-08-05T02:34:54.675Z,16.10
2022-08-05T02:37:22.542Z,15.35
2022-08-05T02:39:56.604Z,14.95
2022-08-05T02:42:34.322Z,15.43
2022-08-05T02:45:04.658Z,15.63
2022-08-05T02:48:06.428Z,15.65
2022-08-05T02:50:13.958Z,15.28
2022-08-05T02:52:49.257Z,16.32
2022-08-05T02:55:55.332Z,14.80
2022-08-05T03:00:30.640Z,14.50
2022-08-05T03:03:10.310Z,15.58
2022-08-05T03:06:55.387Z,15.30
2022-08-05T03:08:16.673Z,16.12
2022-08-05T03:11:02.341Z,15.90
2022-08-05T03:15:58.210Z,15.08
2022-08-05T03:18:30.821Z,14.98
2022-08-05T03:21:03.031Z,15.78
2022-08-05T03:23:36.755Z,16.35
2022-08-05T03:26:30.193Z,16.27
2022-08-05T03:28:45.778Z,18.37
2022-08-05T03:31:55.435Z,16.60
2022-08-05T03:33:53.692Z,16.10
2022-08-05T03:36:30.621Z,16.45
2022-08-05T03:39:13.123Z,16.05
2022-08-05T03:41:46.696Z,16.10
2022-08-05T03:44:19.738Z,17.27
2022-08-05T03:46:52.085Z,15.95
2022-08-05T03:49:31.260Z,16.85
2022-08-05T03:52:48.332Z,15.58
2022-08-05T03:55:33.980Z,15.23
2022-08-05T03:57:28.997Z,16.55
2022-08-05T04:00:03.520Z,16.70
2022-08-05T04:02:52.207Z,16.20
2022-08-05T04:05:15.966Z,15.80
2022-08-05T04:07:57.232Z,15.72
2022-08-05T04:12:54.309Z,15.58
2022-08-05T04:15:33.385Z,15.20
2022-08-05T04:18:09.406Z,14.33
2022-08-05T04:20:41.541Z,16.62
2022-08-05T04:23:16.319Z,15.20
2022-08-05T04:26:00.589Z,14.43
2022-08-05T04:28:30.937Z,14.20
2022-08-05T04:31:01.098Z,14.43
2022-08-05T04:34:17.343Z,14.00
2022-08-05T04:36:15.683Z,14.15
2022-08-05T04:38:51.005Z,14.28
2022-08-05T04:41:34.153Z,13.38
2022-08-05T04:43:57.456Z,14.70
2022-08-05T04:46:30.552Z,13.85
2022-08-05T04:49:03.480Z,14.28
2022-08-05T04:51:36.135Z,13.70
2022-08-05T04:54:09.826Z,14.00
2022-08-05T04:56:43.652Z,13.18
2022-08-05T04:59:33.529Z,14.23
2022-08-05T05:02:08.031Z,13.43
2022-08-05T05:04:25.640Z,13.22
2022-08-05T05:06:57.948Z,13.40
2022-08-05T05:09:30.223Z,13.15
2022-08-05T05:12:04.743Z,12.00
2022-08-05T05:14:38.545Z,11.65
2022-08-05T05:17:13.177Z,12.47
2022-08-05T05:19:47.536Z,12.43
2022-08-05T05:22:23.965Z,12.18
2022-08-05T05:24:58.814Z,11.70
2022-08-05T05:27:44.969Z,11.33
2022-08-05T05:30:28.667Z,11.15
2022-08-05T05:32:44.235Z,10.48
2022-08-05T05:35:19.777Z,11.35
2022-08-05T05:37:59.856Z,9.78
2022-08-05T05:40:29.925Z,11.50
2022-08-05T05:43:03.026Z,10.38
2022-08-05T05:45:35.634Z,11.60
2022-08-05T05:48:08.920Z,10.18
2022-08-05T05:50:44.361Z,10.18
2022-08-05T05:53:22.007Z,10.40
2022-08-05T05:55:51.606Z,9.85
2022-08-05T05:58:31.403Z,9.50
2022-08-05T06:01:12.327Z,9.28
2022-08-05T06:06:07.051Z,9.15
2022-08-05T06:08:39.746Z,8.10
2022-08-05T06:11:11.922Z,7.78
2022-08-05T06:13:50.582Z,8.30
2022-08-05T06:16:30.903Z,7.25
2022-08-05T06:21:35.917Z,6.55
2022-08-05T06:24:02.126Z,6.85
2022-08-05T06:26:35.164Z,6.17
2022-08-05T06:29:42.789Z,7.37
2022-08-05T06:31:42.606Z,6.70
2022-08-05T06:34:15.128Z,6.92
2022-08-05T06:36:56.882Z,7.08
2022-08-05T06:39:27.338Z,7.40
2022-08-05T06:42:04.077Z,6.62
2022-08-05T06:44:36.610Z,6.33
2022-08-05T06:47:30.016Z,6.05
2022-08-05T06:50:00.058Z,7.33
2022-08-05T06:52:36.570Z,7.28
2022-08-05T06:54:54.365Z,6.92
2022-08-05T06:58:03.376Z,6.92
2022-08-05T07:00:03.107Z,7.33
2022-08-05T07:02:47.727Z,6.08
2022-08-05T07:05:27.672Z,6.40
2022-08-05T07:07:55.953Z,6.55
2022-08-05T07:10:32.529Z,6.70
2022-08-05T07:13:46.372Z,6.42
2022-08-05T07:16:12.192Z,6.87
2022-08-05T07:18:47.921Z,6.47
2022-08-05T07:23:53.555Z,5.60
2022-08-05T07:26:25.909Z,6.55
2022-08-05T07:28:59.764Z,6.42
2022-08-05T07:31:41.123Z,6.70
2022-08-05T07:34:08.325Z,6.83
2022-08-05T07:36:40.934Z,6.10
2022-08-05T07:39:24.696Z,6.20
2022-08-05T07:42:13.039Z,5.97
2022-08-05T07:44:21.595Z,5.78
2022-08-05T07:46:53.847Z,6.00
2022-08-05T07:49:26.303Z,6.62
2022-08-05T07:51:59.906Z,6.00
2022-08-05T07:54:33.867Z,5.72
2022-08-05T07:57:22.639Z,6.72
2022-08-05T07:59:41.508Z,7.12
2022-08-05T08:02:16.985Z,5.35
2022-08-05T08:04:49.860Z,5.33
2022-08-05T08:07:23.426Z,6.12
2022-08-05T08:10:00.164Z,5.83
2022-08-05T08:12:49.387Z,5.37
2022-08-05T08:15:15.456Z,5.15
2022-08-05T08:17:52.499Z,4.85
2022-08-05T08:20:43.944Z,5.10
2022-08-05T08:23:03.293Z,6.05
2022-08-05T08:26:00.145Z,5.28
2022-08-05T08:28:18.268Z,5.20
2022-08-05T08:30:47.418Z,7.10
2022-08-05T08:33:19.126Z,5.55
2022-08-05T08:36:03.616Z,4.47
2022-08-05T08:38:36.083Z,5.35
2022-08-05T08:41:01.480Z,4.85
2022-08-05T08:45:23.786Z,5.10
2022-08-05T08:46:10.038Z,4.75
2022-08-05T08:52:01.746Z,4.83
2022-08-05T08:53:53.421Z,5.03
2022-08-05T08:59:00.021Z,5.20
2022-08-05T09:01:33.790Z,4.78
2022-08-05T09:04:06.054Z,4.90
2022-08-05T09:06:39.891Z,5.30
2022-08-05T09:09:13.580Z,4.10
2022-08-05T09:11:52.731Z,5.30
2022-08-05T09:14:56.347Z,5.92
2022-08-05T09:19:28.130Z,5.83
2022-08-05T09:22:23.368Z,5.00
2022-08-05T09:24:34.826Z,5.60
2022-08-05T09:27:09.993Z,5.50
2022-08-05T09:29:49.824Z,4.70
2022-08-05T09:32:51.841Z,5.75
2022-08-05T09:35:01.235Z,5.72
2022-08-05T09:38:12.173Z,5.50
2022-08-05T09:40:11.372Z,5.83
2022-08-05T09:42:44.350Z,5.45
2022-08-05T09:46:06.828Z,5.33
2022-08-05T09:47:55.920Z,5.70
2022-08-05T09:50:44.650Z,5.67
2022-08-05T09:53:23.147Z,5.70
2022-08-05T09:55:57.612Z,5.35
2022-08-05T09:58:21.172Z,5.15
2022-08-05T10:00:59.362Z,4.50
2022-08-05T10:03:56.583Z,5.22
2022-08-05T10:06:15.715Z,5.25
2022-08-05T10:08:50.307Z,5.60
2022-08-05T10:11:21.403Z,5.35
2022-08-05T10:13:55.702Z,5.92
2022-08-05T10:16:41.832Z,5.25
2022-08-05T10:19:13.581Z,5.15
2022-08-05T10:21:47.279Z,5.58
2022-08-05T10:24:21.563Z,5.60
2022-08-05T10:27:00.603Z,4.40
2022-08-05T10:30:41.478Z,5.95
2022-08-05T10:32:52.972Z,4.75
2022-08-05T10:34:42.751Z,5.08
2022-08-05T10:37:17.465Z,5.97
2022-08-05T10:40:03.469Z,6.10
2022-08-05T10:42:34.301Z,5.78
2022-08-05T10:45:21.343Z,5.45
2022-08-05T10:47:56.157Z,5.90
2022-08-05T10:50:20.429Z,5.42
2022-08-05T10:53:00.315Z,5.50
2022-08-05T10:55:38.629Z,7.28
2022-08-05T10:58:15.689Z,5.55
2022-08-05T11:00:55.224Z,6.05
2022-08-05T11:03:26.952Z,5.10
2022-08-05T11:06:15.651Z,5.15
2022-08-05T11:09:32.473Z,6.17
2022-08-05T11:11:56.396Z,4.75
2022-08-05T11:17:59.229Z,5.90
2022-08-05T11:20:17.375Z,6.17
2022-08-05T11:22:53.945Z,6.05
2022-08-05T11:26:05.848Z,6.22
2022-08-05T11:28:17.456Z,6.00
2022-08-05T11:31:05.911Z,6.05
2022-08-05T11:33:53.621Z,5.50
2022-08-05T11:36:53.014Z,5.72
2022-08-05T11:39:55.287Z,6.22
2022-08-05T11:42:28.917Z,6.17
2022-08-05T11:45:23.327Z,6.17
2022-08-05T11:47:48.950Z,5.85
2022-08-05T11:50:14.843Z,6.42
2022-08-05T11:52:53.162Z,6.37
2022-08-05T11:55:43.986Z,5.55
2022-08-05T11:58:20.452Z,6.20
2022-08-05T12:00:55.738Z,5.55
2022-08-05T12:03:31.963Z,6.30
2022-08-05T12:06:10.073Z,6.00
2022-08-05T12:08:53.952Z,6.17
2022-08-05T12:11:40.204Z,5.60
2022-08-05T12:14:11.340Z,5.40
2022-08-05T12:16:47.819Z,6.20
2022-08-05T12:20:26.324Z,5.22
2022-08-05T12:21:57.300Z,5.30
2022-08-05T12:24:30.367Z,6.80
2022-08-05T12:27:09.637Z,6.28
2022-08-05T12:29:38.865Z,5.95
2022-08-05T12:32:13.282Z,6.20
2022-08-05T12:34:46.334Z,5.40
2022-08-05T12:37:30.108Z,5.95
2022-08-05T12:39:54.669Z,6.42
2022-08-05T12:42:31.461Z,6.25
2022-08-05T12:45:09.879Z,5.92
2022-08-05T12:47:43.535Z,5.83
2022-08-05T12:50:17.309Z,5.65
2022-08-05T12:52:59.909Z,5.85
2022-08-05T12:55:32.477Z,6.42
2022-08-05T12:58:48.440Z,4.95
2022-08-05T13:02:05.907Z,4.37
2022-08-05T13:03:17.006Z,3.87
2022-08-05T13:05:50.040Z,4.30
2022-08-05T13:08:22.451Z,4.78
2022-08-05T13:11:02.147Z,4.10
2022-08-05T13:14:06.007Z,4.33
2022-08-05T13:16:17.255Z,4.17
2022-08-05T13:18:55.287Z,4.05
2022-08-05T13:21:38.022Z,3.55
2022-08-05T13:24:02.614Z,4.00
2022-08-05T13:26:36.703Z,7.65
2022-08-05T13:29:09.610Z,3.40
2022-08-05T13:32:04.570Z,3.40
2022-08-05T13:34:21.195Z,9.33
2022-08-05T13:36:51.840Z,10.65
2022-08-05T13:40:14.030Z,4.08
2022-08-05T13:41:59.211Z,4.37
2022-08-05T13:44:31.948Z,3.37
2022-08-05T13:47:09.104Z,3.75
2022-08-05T13:49:45.150Z,4.08
2022-08-05T13:52:20.096Z,3.83
2022-08-05T13:54:54.584Z,3.70
2022-08-05T13:57:27.160Z,3.87
2022-08-05T14:00:00.889Z,3.33
2022-08-05T14:02:35.958Z,3.98
2022-08-05T14:05:19.546Z,3.60
2022-08-05T14:08:05.549Z,4.12
2022-08-05T14:10:28.496Z,4.30
2022-08-05T14:12:59.532Z,4.90
2022-08-05T14:16:08.353Z,3.50
2022-08-05T14:18:15.142Z,4.40
2022-08-05T14:20:41.742Z,5.45
2022-08-05T14:23:24.522Z,4.30
2022-08-05T14:25:53.213Z,3.85
2022-08-05T14:28:26.134Z,3.85
2022-08-05T14:30:59.672Z,3.80
2022-08-05T14:33:59.435Z,4.30
2022-08-05T14:36:08.168Z,4.20
2022-08-05T14:41:13.024Z,5.25
2022-08-05T14:43:57.778Z,4.40
2022-08-05T14:46:21.995Z,3.90
2022-08-05T14:48:54.579Z,3.52
2022-08-05T14:51:30.710Z,3.43
2022-08-05T14:54:27.171Z,4.17
2022-08-05T14:56:36.237Z,4.30
2022-08-05T14:59:09.960Z,4.40
2022-08-05T15:01:48.529Z,3.72
2022-08-05T15:04:16.181Z,5.03
2022-08-05T15:06:49.756Z,4.20
2022-08-05T15:09:52.405Z,3.30
2022-08-05T15:11:57.942Z,4.50
2022-08-05T15:17:03.707Z,3.83
2022-08-05T15:19:36.533Z,4.03
2022-08-05T15:22:10.648Z,4.10
2022-08-05T15:24:44.447Z,3.87
2022-08-05T15:27:17.727Z,4.20
2022-08-05T15:29:51.712Z,4.20
2022-08-05T15:32:28.644Z,4.97
2022-08-05T15:35:09.836Z,4.20
2022-08-05T15:41:00.148Z,4.47
2022-08-05T15:42:54.008Z,4.37
2022-08-05T15:45:16.280Z,5.10
2022-08-05T15:47:50.398Z,4.22
2022-08-05T15:50:25.226Z,4.45
2022-08-05T15:53:03.291Z,3.90
2022-08-05T15:56:03.204Z,4.75
2022-08-05T15:58:06.340Z,4.20
2022-08-05T16:00:50.293Z,3.70
2022-08-05T16:03:16.069Z,4.15
2022-08-05T16:05:52.560Z,5.10
2022-08-05T16:08:24.319Z,4.72
2022-08-05T16:10:59.640Z,4.72
2022-08-05T16:13:34.395Z,4.72
2022-08-05T16:16:07.167Z,5.37
2022-08-05T16:18:52.290Z,5.40
2022-08-05T16:21:17.435Z,4.58
2022-08-05T16:23:53.530Z,5.10
2022-08-05T16:26:26.479Z,4.50
2022-08-05T16:28:58.091Z,4.20
2022-08-05T16:31:56.397Z,4.40
2022-08-05T16:34:04.853Z,5.03
2022-08-05T16:36:38.352Z,4.83
2022-08-05T16:39:13.076Z,4.47
2022-08-05T16:42:14.139Z,4.55
2022-08-05T16:44:21.136Z,4.25
2022-08-05T16:46:55.833Z,5.20
2022-08-05T16:49:30.223Z,5.62
2022-08-05T16:52:03.087Z,5.30
2022-08-05T16:54:37.098Z,6.40
2022-08-05T16:57:21.931Z,4.40
2022-08-05T17:02:20.699Z,4.47
2022-08-05T17:04:54.373Z,5.08
2022-08-05T17:07:38.866Z,4.70
2022-08-05T17:10:02.830Z,4.53
2022-08-05T17:12:51.599Z,3.60
2022-08-05T17:15:10.049Z,4.12
2022-08-05T17:17:44.482Z,4.60
2022-08-05T17:20:17.161Z,4.47
2022-08-05T17:22:55.509Z,4.50
2022-08-05T17:25:39.689Z,4.80
2022-08-05T17:27:59.492Z,6.22
2022-08-05T17:30:32.922Z,4.90
2022-08-05T17:33:08.523Z,5.03
2022-08-05T17:36:07.905Z,5.10
2022-08-05T17:38:18.229Z,4.90
2022-08-05T17:40:51.283Z,5.37
2022-08-05T17:43:47.086Z,5.15
2022-08-05T17:45:58.037Z,5.10
2022-08-05T17:48:32.523Z,6.40
2022-08-05T17:51:09.226Z,5.05
2022-08-05T17:53:39.098Z,6.40
2022-08-05T17:56:12.221Z,5.28
2022-08-05T17:58:44.630Z,4.83
2022-08-05T18:01:16.851Z,5.37
2022-08-05T18:04:03.674Z,5.00
2022-08-05T18:06:29.226Z,5.60
2022-08-05T18:08:58.761Z,5.53
2022-08-05T18:11:33.548Z,5.20
2022-08-05T18:14:13.284Z,5.22
2022-08-05T18:16:46.863Z,5.60
2022-08-05T18:19:16.093Z,6.08
2022-08-05T18:22:08.673Z,6.10
2022-08-05T18:24:22.678Z,5.85
2022-08-05T18:26:55.022Z,5.53
2022-08-05T18:29:40.759Z,5.25
2022-08-05T18:32:01.559Z,6.20
2022-08-05T18:34:41.100Z,5.97
2022-08-05T18:37:12.321Z,5.35
2022-08-05T18:40:34.157Z,5.95
2022-08-05T18:42:16.990Z,5.10
2022-08-05T18:44:55.591Z,5.70
2022-08-05T18:47:26.609Z,5.55
2022-08-05T18:50:15.751Z,5.90
2022-08-05T18:52:51.225Z,5.95
2022-08-05T18:55:23.283Z,5.97
2022-08-05T18:57:56.824Z,6.10
2022-08-05T19:00:30.513Z,5.17
2022-08-05T19:03:04.142Z,6.10
2022-08-05T19:06:12.092Z,6.25
2022-08-05T19:08:13.775Z,5.65
2022-08-05T19:10:47.497Z,8.98
2022-08-05T19:13:20.023Z,8.38
2022-08-05T19:15:58.998Z,6.67
2022-08-05T19:18:29.004Z,6.05
2022-08-05T19:21:01.827Z,7.42
2022-08-05T19:24:06.902Z,6.50
2022-08-05T19:26:11.194Z,5.70
2022-08-05T19:28:43.652Z,6.12
2022-08-05T19:31:19.352Z,6.10
2022-08-05T19:33:56.819Z,5.58
2022-08-05T19:36:24.879Z,6.72
2022-08-05T19:39:01.542Z,5.67
2022-08-05T19:41:58.360Z,6.22
2022-08-05T19:44:13.021Z,5.62
2022-08-05T19:46:40.795Z,6.35
2022-08-05T19:49:16.929Z,5.60
2022-08-05T19:52:08.629Z,5.60
2022-08-05T19:54:29.434Z,6.53
2022-08-05T19:56:56.321Z,6.08
2022-08-05T19:59:59.629Z,6.50
2022-08-05T20:02:02.736Z,6.42
2022-08-05T20:04:35.253Z,6.10
2022-08-05T20:07:13.015Z,6.20
2022-08-05T20:09:54.749Z,6.10
2022-08-05T20:14:49.131Z,7.33
2022-08-05T20:17:24.016Z,6.72
2022-08-05T20:20:00.907Z,6.62
2022-08-05T20:22:33.344Z,7.17
2022-08-05T20:25:05.682Z,6.50
2022-08-05T20:30:13.172Z,7.55
2022-08-05T20:32:45.648Z,6.33
2022-08-05T20:35:18.232Z,6.65
2022-08-05T20:38:06.146Z,5.97
2022-08-05T20:40:25.812Z,6.45
2022-08-05T20:43:00.152Z,6.83
2022-08-05T20:45:55.854Z,6.00
2022-08-05T20:50:42.579Z,6.03
2022-08-05T20:53:36.230Z,6.42
2022-08-05T20:55:54.947Z,7.12
2022-08-05T20:58:23.645Z,6.10
2022-08-05T21:00:57.426Z,7.42
2022-08-05T21:03:34.182Z,7.10
2022-08-05T21:06:05.204Z,7.35
2022-08-05T21:08:42.312Z,6.83
2022-08-05T21:12:07.741Z,7.30
2022-08-05T21:13:56.227Z,8.03
2022-08-05T21:16:22.280Z,7.20
2022-08-05T21:18:57.029Z,7.30
2022-08-05T21:21:39.670Z,7.45
2022-08-05T21:24:12.766Z,6.90
2022-08-05T21:26:47.377Z,7.25
2022-08-05T21:29:18.231Z,6.95
2022-08-05T21:31:51.216Z,7.90
2022-08-05T21:34:23.692Z,7.20
2022-08-05T21:36:56.575Z,7.45
2022-08-05T21:39:29.733Z,7.20
2022-08-05T21:42:02.727Z,7.78
2022-08-05T21:44:35.182Z,6.97
2022-08-05T21:47:17.644Z,6.90
2022-08-05T21:49:56.815Z,7.65
2022-08-05T21:52:26.720Z,7.80
2022-08-05T21:54:51.890Z,7.78
2022-08-05T21:57:32.575Z,7.70
2022-08-05T22:00:10.855Z,7.40
2022-08-05T22:02:33.411Z,7.17
2022-08-05T22:05:06.254Z,6.97
2022-08-05T22:10:14.247Z,7.28
2022-08-05T22:12:50.615Z,7.17
2022-08-05T22:16:01.876Z,7.37
2022-08-05T22:17:59.887Z,7.65
2022-08-05T22:20:29.310Z,8.00
2022-08-05T22:23:21.478Z,8.63
2022-08-05T22:26:15.110Z,8.88
2022-08-05T22:28:47.837Z,8.15
2022-08-05T22:31:21.956Z,8.43
2022-08-05T22:33:55.908Z,8.40
2022-08-05T22:36:28.174Z,8.80
2022-08-05T22:39:09.182Z,7.90
2022-08-05T22:42:10.517Z,9.45
2022-08-05T22:44:11.993Z,8.10
2022-08-05T22:46:45.352Z,9.05
2022-08-05T22:49:45.991Z,7.95
2022-08-05T22:52:04.644Z,8.03
2022-08-05T22:54:28.543Z,9.23
2022-08-05T22:57:00.991Z,7.78
2022-08-05T22:59:46.370Z,8.28
2022-08-05T23:02:12.980Z,7.55
2022-08-05T23:04:51.625Z,8.58
2022-08-05T23:07:22.962Z,8.00
2022-08-05T23:10:01.765Z,8.13
2022-08-05T23:12:32.483Z,7.22
2022-08-05T23:15:08.577Z,8.05
2022-08-05T23:18:01.314Z,8.13
2022-08-05T23:20:17.804Z,8.30
2022-08-05T23:22:55.973Z,8.30
2022-08-05T23:25:53.364Z,8.28
2022-08-05T23:30:32.900Z,7.85
2022-08-05T23:33:06.917Z,7.42
2022-08-05T23:35:40.835Z,7.72
2022-08-05T23:38:13.599Z,7.15
2022-08-05T23:40:49.988Z,7.63
2022-08-05T23:43:25.519Z,7.83
2022-08-05T23:45:55.941Z,7.58
2022-08-05T23:48:28.377Z,7.50
2022-08-05T23:51:01.203Z,7.92
2022-08-05T23:53:46.552Z,7.95
2022-08-05T23:56:09.605Z,7.92
2022-08-05T23:58:42.427Z,7.35
